Time;durP1;ratioP1;P1;durP2;ratioP2;P2;SDS_P1;SDS_P2;PMS_P1;PMS_P2;Temp;Humidity;BMP_temperature;BMP_pressure;BME280_temperature;BME280_humidity;BME280_pressure;Samples;Min_cycle;Max_cycle;Signal;HPM_P1;HPM_P2
2023/02/21 02:15:33;;;;;;;1.33;1.00;;;2.90;1.00;;;3.79;100.00;95987.00;5005838;28;20212;-69
2023/02/21 02:18:27;;;;;;;2.07;0.93;;;2.90;1.00;;;3.77;100.00;95983.75;5005429;28;20672;-69
2023/02/21 02:21:53;;;;;;;4.20;1.00;;;2.80;1.00;;;3.76;100.00;95982.13;5011274;28;20235;-69
2023/02/21 02:24:41;;;;;;;1.50;0.77;;;2.80;1.00;;;3.73;100.00;95987.84;5002938;28;20648;-69
2023/02/21 02:27:31;;;;;;;1.80;0.90;;;2.80;1.00;;;3.71;100.00;95979.31;5011840;28;20277;-70
2023/02/21 02:30:35;;;;;;;1.13;1.00;;;2.90;1.00;;;3.66;100.00;95965.94;5009445;28;20209;-70
2023/02/21 02:33:30;;;;;;;3.47;0.87;;;2.80;1.00;;;3.65;100.00;95980.13;5006981;28;20217;-70
2023/02/21 02:36:04;;;;;;;1.37;0.77;;;2.70;1.00;;;3.67;100.00;95972.81;5011702;28;20694;-69
2023/02/21 02:38:38;;;;;;;1.27;0.97;;;2.80;1.00;;;3.62;100.00;95977.09;5007526;28;20707;-69
2023/02/21 02:41:13;;;;;;;3.30;0.90;;;2.70;1.00;;;3.63;100.00;95971.63;5009372;28;20690;-69
2023/02/21 02:43:46;;;;;;;3.40;1.00;;;2.70;1.00;;;3.64;100.00;95967.97;5009348;28;20558;-70
2023/02/21 02:46:20;;;;;;;1.50;0.93;;;2.70;1.00;;;3.66;100.00;95965.13;5010882;28;20216;-69
2023/02/21 02:48:53;;;;;;;3.07;0.97;;;2.70;1.00;;;3.69;100.00;95967.34;5009094;28;20259;-70
2023/02/21 02:51:22;;;;;;;1.07;0.93;;;2.70;1.00;;;3.69;100.00;95962.88;5006595;28;20209;-69
2023/02/21 02:53:49;;;;;;;2.03;0.90;;;2.80;1.00;;;3.71;100.00;95965.31;5009113;28;20256;-70
2023/02/21 02:56:17;;;;;;;1.90;1.00;;;2.80;1.00;;;3.69;100.00;95962.06;5006529;28;20275;-70
2023/02/21 02:58:50;;;;;;;1.10;1.00;;;2.80;1.00;;;3.68;100.00;95956.00;5009627;28;20920;-69
2023/02/21 03:01:36;;;;;;;2.90;0.90;;;2.80;1.00;;;3.63;100.00;95961.09;5002915;28;20232;-70
2023/02/21 03:04:43;;;;;;;2.70;0.93;;;2.70;1.00;;;3.61;100.00;95968.38;5007849;28;20205;-69
2023/02/21 03:07:21;;;;;;;1.37;1.00;;;2.70;1.00;;;3.55;100.00;95966.56;5005048;28;20215;-70
2023/02/21 03:10:11;;;;;;;2.47;1.20;;;2.70;1.00;;;3.51;100.00;95957.44;5010362;28;20226;-69
2023/02/21 03:12:47;;;;;;;1.47;0.83;;;2.60;1.00;;;3.46;100.00;95957.25;5000808;28;20288;-69
2023/02/21 03:15:20;;;;;;;1.40;1.10;;;2.50;1.00;;;3.46;100.00;95961.75;5006642;28;20257;-70
2023/02/21 03:17:54;;;;;;;2.80;0.90;;;2.50;1.00;;;3.38;100.00;95962.78;5008484;28;20647;-69
2023/02/21 03:20:22;;;;;;;4.07;1.37;;;2.50;1.00;;;3.39;100.00;95966.19;5010761;28;20285;-70
2023/02/21 03:22:52;;;;;;;1.50;0.80;;;2.50;1.00;;;3.35;100.00;95968.44;5006323;28;20236;-69
2023/02/21 03:25:22;;;;;;;1.90;0.80;;;2.40;1.00;;;3.34;100.00;95963.38;5010407;28;20262;-69
2023/02/21 03:27:51;;;;;;;1.10;0.80;;;2.40;1.00;;;3.31;100.00;95961.97;5006824;28;20212;-69
2023/02/21 03:30:19;;;;;;;1.10;0.90;;;2.40;1.00;;;3.31;100.00;95955.91;5010167;28;20243;-70
2023/02/21 03:32:50;;;;;;;3.17;1.13;;;2.30;1.00;;;3.37;100.00;95953.25;5003940;28;20556;-70
2023/02/21 03:35:17;;;;;;;1.10;1.00;;;2.40;1.00;;;3.47;100.00;95958.09;5009611;28;20262;-70
2023/02/21 03:37:46;;;;;;;1.90;1.10;;;2.50;1.00;;;3.53;100.00;95960.72;5008552;28;20220;-70
2023/02/21 03:40:22;;;;;;;1.83;1.00;;;2.60;1.00;;;3.63;100.00;95970.81;5010074;28;20236;-69
2023/02/21 03:42:49;;;;;;;1.87;0.83;;;2.70;1.00;;;3.65;100.00;95971.44;5005576;28;20211;-69
2023/02/21 03:45:16;;;;;;;1.80;0.90;;;2.70;1.00;;;3.60;100.00;95969.41;5010471;28;20263;-69
2023/02/21 03:47:43;;;;;;;2.30;1.10;;;2.70;1.00;;;3.64;100.00;95961.88;5005803;28;20209;-70
2023/02/21 03:50:10;;;;;;;3.10;1.87;;;2.70;1.00;;;3.66;100.00;95959.88;5011025;28;20279;-69
2023/02/21 03:52:37;;;;;;;1.53;0.87;;;2.70;1.00;;;3.70;100.00;95967.13;5006841;28;20210;-70
2023/02/21 03:55:04;;;;;;;4.37;1.73;;;2.70;1.00;;;3.71;100.00;95962.69;5009654;28;20270;-70
2023/02/21 03:57:33;;;;;;;1.57;1.20;;;2.80;1.00;;;3.64;100.00;95960.06;5003093;28;20270;-70
2023/02/21 04:00:00;;;;;;;1.80;1.07;;;2.70;1.00;;;3.59;100.00;95959.88;5009643;28;20275;-69
2023/02/21 04:02:27;;;;;;;3.63;1.30;;;2.70;1.00;;;3.61;100.00;95955.19;5002898;28;20218;-70
2023/02/21 04:04:54;;;;;;;1.77;0.90;;;2.60;1.00;;;3.67;100.00;95949.09;5008497;28;20624;-70
2023/02/21 04:07:21;;;;;;;6.07;1.00;;;2.80;1.00;;;3.72;100.00;95954.53;5009924;28;20210;-69
2023/02/21 04:09:48;;;;;;;1.97;1.10;;;2.90;1.00;;;3.73;100.00;95956.19;5012508;28;20629;-70
2023/02/21 04:12:16;;;;;;;2.03;1.20;;;2.80;1.00;;;3.69;100.00;95959.44;5006076;28;20275;-70
2023/02/21 04:14:44;;;;;;;2.17;1.03;;;2.80;1.00;;;3.67;100.00;95951.72;5008681;28;20347;-70
2023/02/21 04:17:11;;;;;;;2.10;1.30;;;2.70;1.00;;;3.67;100.00;95958.84;5004279;28;20213;-70
2023/02/21 04:19:37;;;;;;;1.80;0.93;;;2.70;1.00;;;3.65;100.00;95960.88;5007333;28;20209;-70
2023/02/21 04:22:04;;;;;;;1.73;1.13;;;2.70;1.00;;;3.64;100.00;95954.78;5006917;28;20632;-70
2023/02/21 04:24:31;;;;;;;1.73;1.00;;;2.70;1.00;;;3.64;100.00;95953.97;5010664;28;20213;-69
2023/02/21 04:26:58;;;;;;;3.33;1.23;;;2.70;1.00;;;3.61;100.00;95963.09;5009054;28;20207;-70
2023/02/21 04:29:25;;;;;;;1.50;1.00;;;2.70;1.00;;;3.60;100.00;95953.56;5010927;28;20209;-69
2023/02/21 04:31:54;;;;;;;2.77;1.23;;;2.70;1.00;;;3.59;100.00;95951.97;5006927;28;20244;-69
2023/02/21 04:34:21;;;;;;;1.90;1.10;;;2.70;1.00;;;3.58;100.00;95953.00;5008429;28;20216;-70
2023/02/21 04:36:48;;;;;;;3.27;1.20;;;2.70;1.00;;;3.57;100.00;95950.56;5007052;28;20216;-69
2023/02/21 04:39:15;;;;;;;3.23;1.20;;;2.70;1.00;;;3.52;100.00;95951.19;5008178;28;20232;-69
2023/02/21 04:41:42;;;;;;;2.30;1.23;;;2.60;1.00;;;3.48;100.00;95957.06;5008825;28;20225;-70
2023/02/21 04:44:09;;;;;;;2.30;1.07;;;2.60;1.00;;;3.42;100.00;95963.16;5009431;28;20216;-69
2023/02/21 04:46:35;;;;;;;3.10;1.13;;;2.50;1.00;;;3.30;100.00;95956.91;5004822;28;20239;-70
2023/02/21 04:49:04;;;;;;;3.07;1.10;;;2.40;1.00;;;3.20;100.00;95956.53;5005449;28;20667;-70
2023/02/21 04:51:31;;;;;;;3.57;1.20;;;2.30;1.00;;;3.18;100.00;95955.91;5003592;28;20262;-70
2023/02/21 04:53:58;;;;;;;1.07;0.90;;;2.30;1.00;;;3.14;100.00;95954.69;5003238;28;20205;-70
2023/02/21 04:56:26;;;;;;;2.30;1.10;;;2.20;1.00;;;3.07;100.00;95949.44;5006851;28;20220;-69
2023/02/21 04:58:54;;;;;;;1.10;0.93;;;2.10;1.00;;;3.04;100.00;95955.13;5005048;28;20962;-69
2023/02/21 05:01:21;;;;;;;3.60;1.13;;;2.10;1.00;;;3.05;100.00;95945.41;5004321;28;20360;-69
2023/02/21 05:03:49;;;;;;;2.87;1.00;;;2.10;1.00;;;3.02;100.00;95941.34;5006643;28;20204;-69
2023/02/21 05:06:21;;;;;;;7.13;1.07;;;2.10;1.00;;;3.01;100.00;95941.53;5004565;28;20640;-70
2023/02/21 05:08:49;;;;;;;2.67;1.03;;;2.10;1.00;;;3.02;100.00;95937.88;5009073;28;20201;-70
2023/02/21 05:11:16;;;;;;;4.47;0.93;;;2.10;1.00;;;2.99;100.00;95935.66;4997739;28;20692;-70
2023/02/21 05:13:43;;;;;;;2.47;1.37;;;2.10;1.00;;;3.01;100.00;95937.06;5006795;28;20218;-69
2023/02/21 05:16:10;;;;;;;1.50;0.80;;;2.10;1.00;;;3.05;100.00;95933.00;5002822;28;20208;-70
2023/02/21 05:18:38;;;;;;;4.30;1.00;;;2.10;1.00;;;3.03;100.00;95928.97;4999926;28;20220;-70
2023/02/21 05:21:07;;;;;;;2.83;0.93;;;2.10;1.00;;;2.99;100.00;95936.47;4998058;28;20232;-70
2023/02/21 05:23:37;;;;;;;1.57;1.03;;;2.10;1.00;;;2.90;100.00;95937.69;5007323;28;20259;-70
2023/02/21 05:26:06;;;;;;;1.43;1.00;;;2.00;1.00;;;2.84;100.00;95935.09;5001341;28;20203;-70
2023/02/21 05:28:33;;;;;;;2.57;0.97;;;1.90;1.00;;;2.85;100.00;95947.22;5006035;28;20212;-70
2023/02/21 05:31:00;;;;;;;1.27;0.90;;;1.90;1.00;;;2.76;100.00;95941.38;5007850;28;20267;-69
2023/02/21 05:33:27;;;;;;;1.63;0.80;;;1.90;1.00;;;2.76;100.00;95936.09;5006204;28;20651;-70
2023/02/21 05:35:56;;;;;;;2.50;0.80;;;1.80;1.00;;;2.76;100.00;95930.00;5001602;28;20212;-70
2023/02/21 05:38:24;;;;;;;0.80;0.80;;;1.80;1.00;;;2.81;100.00;95933.66;5005719;28;20293;-70
2023/02/21 05:40:53;;;;;;;2.17;0.90;;;1.80;1.00;;;2.84;100.00;95941.16;4995524;28;20200;-70
2023/02/21 05:43:20;;;;;;;3.20;1.53;;;1.90;1.00;;;2.76;100.00;95937.91;5003452;28;20648;-70
2023/02/21 05:45:46;;;;;;;2.53;1.57;;;1.80;1.00;;;2.70;100.00;95936.09;4996652;28;20208;-69
2023/02/21 05:48:14;;;;;;;1.77;1.10;;;1.80;1.00;;;2.63;100.00;95933.47;4998339;28;20209;-70
2023/02/21 05:50:41;;;;;;;2.00;1.00;;;1.80;1.00;;;2.63;100.00;95943.16;5006503;28;20208;-70
2023/02/21 05:53:09;;;;;;;1.70;0.60;;;1.70;1.00;;;2.66;100.00;95937.50;5002505;28;20267;-70
2023/02/21 05:55:36;;;;;;;1.00;0.70;;;1.70;1.00;;;2.66;100.00;95942.78;5002589;28;20291;-70
2023/02/21 05:58:04;;;;;;;1.70;0.80;;;1.70;1.00;;;2.64;100.00;95932.44;4999838;28;20269;-70
2023/02/21 06:00:31;;;;;;;3.07;1.10;;;1.70;1.00;;;2.63;100.00;95938.72;5006906;28;20219;-70
2023/02/21 06:02:58;;;;;;;1.10;0.90;;;1.70;1.00;;;2.59;100.00;95950.66;5005597;28;20233;-70
2023/02/21 06:05:25;;;;;;;2.67;0.90;;;1.70;1.00;;;2.59;100.00;95953.28;5002112;28;20230;-70
2023/02/21 06:07:52;;;;;;;1.90;0.97;;;1.60;1.00;;;2.53;100.00;95948.84;5009018;28;20586;-68
2023/02/21 06:10:20;;;;;;;2.83;0.73;;;1.60;1.00;;;2.50;100.00;95943.97;5003714;28;20208;-69
2023/02/21 06:12:46;;;;;;;2.07;1.20;;;1.60;1.00;;;2.43;100.00;95943.16;5008137;28;20251;-69
2023/02/21 06:15:15;;;;;;;7.30;2.03;;;1.50;1.00;;;2.44;100.00;95951.88;5003534;28;20274;-68
2023/02/21 06:17:43;;;;;;;4.77;2.80;;;1.50;1.00;;;2.32;100.00;95946.38;5005415;28;20257;-68
2023/02/21 06:20:15;;;;;;;3.67;2.20;;;1.40;1.00;;;2.21;100.00;95946.97;5005260;28;20670;-68
2023/02/21 06:22:42;;;;;;;3.37;2.27;;;1.30;1.00;;;2.18;100.00;95939.47;5004523;28;20223;-68
2023/02/21 06:25:10;;;;;;;3.30;1.77;;;1.30;1.00;;;2.22;100.00;95950.41;5005003;28;20227;-68
2023/02/21 06:27:37;;;;;;;3.20;1.70;;;1.30;1.00;;;2.13;100.00;95956.88;5002587;28;20209;-69
2023/02/21 06:30:06;;;;;;;4.03;1.70;;;1.20;1.00;;;2.11;100.00;95954.44;4996904;28;20212;-69
2023/02/21 06:32:34;;;;;;;2.17;1.40;;;1.10;1.00;;;2.12;100.00;95948.16;5007527;28;20886;-69
2023/02/21 06:35:01;;;;;;;1.47;0.90;;;1.10;1.00;;;2.21;100.00;95946.97;5002633;28;20208;-69
2023/02/21 06:37:28;;;;;;;1.70;0.97;;;1.20;1.00;;;2.30;100.00;95944.97;5002757;28;20207;-69
2023/02/21 06:39:55;;;;;;;2.70;1.20;;;1.30;1.00;;;2.37;100.00;95943.97;5001599;28;20237;-69
2023/02/21 06:42:22;;;;;;;2.63;1.03;;;1.30;1.00;;;2.42;100.00;95938.91;5009202;28;20685;-69
2023/02/21 06:44:50;;;;;;;1.20;0.87;;;1.40;1.00;;;2.45;100.00;95941.13;5002431;28;20217;-69
2023/02/21 06:47:17;;;;;;;2.03;1.20;;;1.50;1.00;;;2.49;100.00;95933.66;5005714;28;20234;-69
2023/02/21 06:49:45;;;;;;;1.87;1.13;;;1.50;1.00;;;2.53;100.00;95934.84;5007299;28;20221;-69
2023/02/21 06:52:16;;;;;;;6.90;1.40;;;1.50;1.00;;;2.55;100.00;95933.63;5007457;28;20250;-69
2023/02/21 06:54:46;;;;;;;2.27;1.20;;;1.60;1.00;;;2.56;100.00;95940.56;5004526;28;20267;-69
2023/02/21 06:57:13;;;;;;;2.33;1.50;;;1.50;1.00;;;2.60;100.00;95941.75;5005529;28;20205;-69
2023/02/21 06:59:40;;;;;;;4.37;1.67;;;1.60;1.00;;;2.59;100.00;95939.34;5004458;28;20665;-69
2023/02/21 07:02:17;;;;;;;2.20;1.40;;;1.60;1.00;;;2.65;100.00;95939.31;5008016;28;20234;-70
2023/02/21 07:04:45;;;;;;;2.73;1.63;;;1.60;1.00;;;2.72;100.00;95929.63;5007049;28;20227;-69
2023/02/21 07:07:12;;;;;;;2.57;1.50;;;1.60;1.00;;;2.76;100.00;95928.19;5002337;28;20263;-69
2023/02/21 07:09:38;;;;;;;1.97;1.20;;;1.70;1.00;;;2.75;100.00;95923.94;5007258;28;20653;-69
2023/02/21 07:12:07;;;;;;;2.10;1.30;;;1.70;1.00;;;2.81;100.00;95922.31;5007967;28;20204;-70
2023/02/21 07:14:34;;;;;;;3.20;1.10;;;1.70;1.00;;;2.89;100.00;95915.00;5008145;28;20318;-69
2023/02/21 07:17:01;;;;;;;2.23;0.90;;;1.80;1.00;;;3.03;100.00;95923.69;5006577;28;20212;-69
2023/02/21 07:19:28;;;;;;;2.90;1.27;;;1.90;1.00;;;3.07;100.00;95917.00;5006506;28;20220;-69
2023/02/21 07:21:56;;;;;;;1.47;0.83;;;1.90;1.00;;;3.15;100.00;95911.53;5003315;28;20234;-69
2023/02/21 07:24:22;;;;;;;2.77;1.23;;;2.00;1.00;;;3.27;100.00;95909.88;5007101;28;20717;-69
2023/02/21 07:26:49;;;;;;;3.57;1.50;;;2.10;1.00;;;3.35;100.00;95918.38;5010895;28;20213;-69
2023/02/21 07:29:17;;;;;;;2.03;1.30;;;2.20;1.00;;;3.37;100.00;95913.72;4999337;28;20213;-69
2023/02/21 07:31:43;;;;;;;2.20;1.57;;;2.20;1.00;;;3.39;100.00;95916.94;5011322;28;20655;-69
2023/02/21 07:34:12;;;;;;;7.70;1.60;;;2.20;1.00;;;3.49;100.00;95914.69;5008333;28;20680;-69
2023/02/21 07:36:39;;;;;;;2.87;1.70;;;2.30;1.00;;;3.66;100.00;95921.09;5006952;28;20738;-69
2023/02/21 07:39:07;;;;;;;11.70;3.20;;;2.40;1.00;;;3.71;100.00;95921.28;5008560;28;20287;-70
2023/02/21 07:41:34;;;;;;;13.80;6.13;;;2.40;1.00;;;3.74;100.00;95931.44;5006873;28;20662;-70
2023/02/21 07:44:01;;;;;;;12.67;5.80;;;2.50;1.00;;;3.71;100.00;95934.47;5006295;28;20259;-69
2023/02/21 07:46:28;;;;;;;10.97;5.73;;;2.40;1.00;;;3.75;100.00;95933.03;5011589;28;20209;-70
2023/02/21 07:48:55;;;;;;;14.63;5.50;;;2.50;1.00;;;3.85;100.00;95928.13;5000705;28;20620;-70
2023/02/21 07:51:23;;;;;;;12.33;5.90;;;2.50;1.00;;;3.95;100.00;95936.41;5004499;28;20213;-70
2023/02/21 07:53:49;;;;;;;9.63;4.97;;;2.60;1.00;;;4.11;100.00;95933.28;5004445;28;20242;-70
2023/02/21 07:56:17;;;;;;;8.97;4.37;;;2.70;1.00;;;4.20;100.00;95942.56;5002071;28;20289;-70
2023/02/21 07:58:44;;;;;;;8.57;4.30;;;2.80;1.00;;;4.29;100.00;95938.66;5002487;28;20256;-70
2023/02/21 08:01:12;;;;;;;7.43;3.40;;;2.90;1.00;;;4.35;100.00;95936.97;5004789;28;20216;-70
2023/02/21 08:03:39;;;;;;;6.43;3.00;;;3.00;1.00;;;4.27;100.00;95935.41;5003361;28;20602;-70
2023/02/21 08:06:08;;;;;;;8.67;4.33;;;3.00;1.00;;;4.25;100.00;95923.44;5008993;28;20667;-70
2023/02/21 08:08:35;;;;;;;7.70;4.17;;;3.10;1.00;;;4.33;100.00;95926.66;5006993;28;20263;-70
2023/02/21 08:11:02;;;;;;;8.80;4.30;;;3.10;1.00;;;4.47;100.00;95933.44;5007961;28;20646;-71
2023/02/21 08:13:30;;;;;;;6.03;3.40;;;3.20;1.00;;;4.57;100.00;95933.00;5005810;28;20278;-70
2023/02/21 08:15:56;;;;;;;9.77;3.23;;;3.30;1.00;;;4.70;100.00;95930.25;5008230;28;20210;-70
2023/02/21 08:18:24;;;;;;;8.80;3.53;;;3.40;1.00;;;4.89;100.00;95934.56;5008615;28;20214;-70
2023/02/21 08:20:52;;;;;;;5.67;3.43;;;3.60;1.00;;;5.01;100.00;95940.75;5008826;28;20771;-70
2023/02/21 08:23:19;;;;;;;6.83;3.30;;;3.60;1.00;;;5.13;100.00;95941.69;5009521;28;20293;-70
2023/02/21 08:25:47;;;;;;;7.47;3.23;;;3.70;1.00;;;5.14;100.00;95936.16;5009928;28;20350;-69
2023/02/21 08:28:14;;;;;;;5.67;3.33;;;3.80;1.00;;;5.34;100.00;95936.00;5007752;28;20218;-69
2023/02/21 08:30:42;;;;;;;7.10;2.70;;;3.90;1.00;;;5.48;100.00;95930.34;5009764;28;20257;-71
2023/02/21 08:33:09;;;;;;;5.93;2.93;;;4.10;1.00;;;5.58;100.00;95932.50;5004064;28;20265;-70
2023/02/21 08:35:36;;;;;;;5.33;2.83;;;4.20;1.00;;;5.66;100.00;95927.69;5005656;28;20658;-71
2023/02/21 08:38:04;;;;;;;4.30;2.83;;;4.30;1.00;;;5.76;100.00;95930.63;5005351;28;20247;-71
2023/02/21 08:40:31;;;;;;;4.20;2.50;;;4.30;1.00;;;5.91;100.00;95925.00;5010396;28;20221;-71
2023/02/21 08:43:00;;;;;;;4.30;2.23;;;4.50;1.00;;;6.04;100.00;95924.84;5005294;28;20227;-71
2023/02/21 08:45:28;;;;;;;3.33;2.20;;;4.60;1.00;;;6.15;100.00;95924.06;5009700;28;20273;-71
2023/02/21 08:47:57;;;;;;;4.47;2.13;;;4.60;1.00;;;6.27;100.00;95930.22;5007262;28;20599;-71
2023/02/21 08:50:27;;;;;;;3.57;1.70;;;4.80;1.00;;;6.38;100.00;95921.50;5006078;28;20888;-71
2023/02/21 08:52:54;;;;;;;3.40;1.80;;;4.90;1.00;;;6.47;100.00;95925.44;5005091;28;20739;-71
2023/02/21 08:55:22;;;;;;;2.97;2.03;;;5.00;1.00;;;6.59;100.00;95931.59;5008703;28;20258;-71
2023/02/21 08:57:50;;;;;;;3.07;1.77;;;5.20;1.00;;;6.71;100.00;95933.22;5007187;28;20211;-71
2023/02/21 09:00:22;;;;;;;4.93;2.27;;;5.30;1.00;;;6.88;100.00;95930.72;5086893;22;20581;-69
2023/02/21 09:02:49;;;;;;;2.33;1.87;;;5.50;1.00;;;7.01;100.00;95933.97;4961955;28;20229;-69
2023/02/21 09:05:23;;;;;;;2.30;1.60;;;5.50;1.00;;;7.03;100.00;95933.75;4969474;28;20644;-69
2023/02/21 09:07:53;;;;;;;5.33;1.50;;;5.60;1.00;;;7.03;100.00;95928.44;4960780;28;20213;-69
2023/02/21 09:10:21;;;;;;;4.47;1.40;;;5.60;1.00;;;6.99;100.00;95930.75;4965923;28;20303;-69
2023/02/21 09:12:48;;;;;;;1.83;1.37;;;5.60;1.00;;;7.05;100.00;95926.38;4964395;28;20263;-69
2023/02/21 09:15:15;;;;;;;3.90;1.60;;;5.60;1.00;;;7.12;100.00;95932.38;4963601;28;20271;-69
2023/02/21 09:17:42;;;;;;;2.63;1.40;;;5.60;1.00;;;7.20;100.00;95930.19;4961296;28;20558;-69
2023/02/21 09:20:13;;;;;;;1.40;1.13;;;5.70;1.00;;;7.19;100.00;95930.41;4964644;28;20265;-69
2023/02/21 09:22:43;;;;;;;2.37;1.50;;;5.70;1.00;;;7.27;100.00;95927.44;4966934;28;20276;-69
2023/02/21 09:25:12;;;;;;;2.73;1.73;;;5.80;1.00;;;7.34;100.00;95930.75;4960796;28;20221;-69
2023/02/21 09:27:39;;;;;;;1.53;1.30;;;5.90;1.00;;;7.50;100.00;95919.44;4965809;28;20304;-69
2023/02/21 09:30:09;;;;;;;1.77;1.40;;;6.10;1.00;;;7.64;100.00;95921.63;4962581;28;20303;-69
2023/02/21 09:32:36;;;;;;;1.97;1.77;;;6.20;1.00;;;7.76;100.00;95922.41;4964965;28;20252;-69
2023/02/21 09:35:04;;;;;;;3.97;1.73;;;6.30;1.00;;;7.84;100.00;95921.25;4964170;28;20214;-69
2023/02/21 09:37:31;;;;;;;3.53;1.50;;;6.40;1.00;;;7.89;100.00;95926.66;4962725;28;20213;-70
2023/02/21 09:40:00;;;;;;;3.33;2.60;;;6.50;1.00;;;8.01;100.00;95924.81;4961518;28;20208;-72
2023/02/21 09:42:31;;;;;;;2.60;1.20;;;6.60;1.00;;;8.14;100.00;95922.69;4967444;28;20237;-69
2023/02/21 09:44:58;;;;;;;3.30;1.90;;;6.70;1.00;;;8.29;100.00;95928.31;4965212;28;20252;-76
2023/02/21 09:47:30;;;;;;;3.50;1.70;;;6.90;1.00;;;8.41;100.00;95922.94;4967852;28;20230;-69
2023/02/21 09:50:04;;;;;;;2.50;1.40;;;7.10;1.00;;;8.53;100.00;95924.50;4960607;28;20217;-71
2023/02/21 09:52:35;;;;;;;2.03;1.40;;;7.20;1.00;;;8.66;100.00;95918.88;4961461;28;20248;-69
2023/02/21 09:55:08;;;;;;;4.37;1.50;;;7.30;1.00;;;8.71;100.00;95918.16;4959680;28;20264;-70
2023/02/21 09:57:36;;;;;;;1.97;1.30;;;7.30;1.00;;;8.79;100.00;95909.78;4963088;28;20273;-72
2023/02/21 10:00:17;;;;;;;1.90;1.40;;;7.40;1.00;;;9.02;100.00;95914.94;4964549;28;20254;-69
2023/02/21 10:02:57;;;;;;;2.67;1.27;;;7.60;1.00;;;9.17;100.00;95917.84;4960808;28;20248;-69
2023/02/21 10:05:43;;;;;;;3.60;1.50;;;7.90;1.00;;;9.28;100.00;95920.44;4959429;28;20669;-68
2023/02/21 10:08:22;;;;;;;3.73;1.40;;;8.00;1.00;;;9.37;100.00;95913.66;4963709;28;20212;-68
2023/02/21 10:10:56;;;;;;;2.10;1.20;;;8.10;1.00;;;9.45;100.00;95909.78;4963212;28;20733;-68
2023/02/21 10:13:36;;;;;;;1.87;1.30;;;8.10;1.00;;;9.70;100.00;95916.25;4964054;28;20291;-68
2023/02/21 10:16:08;;;;;;;2.47;1.57;;;8.50;1.00;;;9.81;100.00;95915.34;4962036;28;20262;-68
2023/02/21 10:18:41;;;;;;;2.40;1.20;;;8.60;1.00;;;9.97;100.00;95909.16;4962032;28;20272;-69
2023/02/21 10:21:17;;;;;;;2.83;1.30;;;8.70;1.00;;;10.01;100.00;95909.47;4964209;28;20219;-69
2023/02/21 10:23:46;;;;;;;1.60;1.23;;;8.80;1.00;;;10.04;100.00;95909.00;4963927;28;20986;-69
2023/02/21 10:26:20;;;;;;;2.40;1.37;;;8.80;1.00;;;10.12;100.00;95910.44;4960568;28;20201;-69
2023/02/21 10:28:48;;;;;;;1.77;1.20;;;8.90;1.00;;;10.23;100.00;95905.75;4967107;28;20211;-69
2023/02/21 10:31:21;;;;;;;1.57;1.30;;;9.10;1.00;;;10.27;100.00;95908.72;4967020;28;20225;-69
2023/02/21 10:33:47;;;;;;;3.13;1.33;;;9.10;1.00;;;10.38;100.00;95907.78;4965585;28;20246;-69
2023/02/21 10:36:19;;;;;;;1.67;1.03;;;9.20;1.00;;;10.57;100.00;95907.22;4968025;28;20211;-69
2023/02/21 10:38:55;;;;;;;3.73;1.13;;;9.30;1.00;;;10.80;100.00;95909.53;4966647;28;20209;-69
2023/02/21 10:41:27;;;;;;;4.07;0.97;;;9.60;1.00;;;10.89;100.00;95912.56;4968779;28;20745;-70
2023/02/21 10:44:02;;;;;;;2.67;0.90;;;9.70;1.00;;;10.95;100.00;95911.56;4963884;28;20271;-69
2023/02/21 10:46:34;;;;;;;1.53;1.00;;;9.80;1.00;;;11.00;100.00;95914.25;4966062;28;20276;-69
2023/02/21 10:49:23;;;;;;;2.17;1.13;;;9.80;1.00;;;11.16;100.00;95911.47;4965821;28;20230;-69
2023/02/21 10:52:06;;;;;;;1.50;0.93;;;10.00;1.00;;;11.18;100.00;95911.22;4969047;28;20301;-70
2023/02/21 10:54:33;;;;;;;1.53;0.83;;;10.00;1.00;;;11.27;100.00;95915.81;4966629;28;20656;-69
2023/02/21 10:57:04;;;;;;;1.07;1.00;;;10.10;1.00;;;11.27;100.00;95915.03;4959873;28;20607;-67
2023/02/21 10:59:34;;;;;;;0.90;0.87;;;10.10;1.00;;;11.40;100.00;95917.25;4962341;28;20243;-69
2023/02/21 11:02:03;;;;;;;0.90;0.63;;;10.20;1.00;;;11.47;100.00;95915.94;4964420;28;20272;-69
2023/02/21 11:04:33;;;;;;;0.80;0.53;;;10.40;1.00;;;11.43;100.00;95916.75;4964530;28;20621;-69
2023/02/21 11:07:05;;;;;;;0.77;0.60;;;10.30;1.00;;;11.47;100.00;95909.81;4968132;28;20212;-73
2023/02/21 11:09:36;;;;;;;1.40;0.50;;;10.30;1.00;;;11.36;100.00;95918.84;4965650;28;20271;-69
2023/02/21 11:12:17;;;;;;;1.03;0.50;;;10.20;1.00;;;11.46;94.39;95927.72;4966751;28;20209;-69
2023/02/21 11:15:04;;;;;;;0.93;0.50;;;10.40;1.00;;;11.47;97.52;95915.94;4965390;28;20209;-73
2023/02/21 11:17:32;;;;;;;0.70;0.50;;;10.30;1.00;;;11.47;96.65;95912.50;4963114;28;20205;-70
2023/02/21 11:20:07;;;;;;;0.70;0.50;;;10.30;1.00;;;11.61;92.77;95910.22;4967555;28;20214;-70
2023/02/21 11:22:41;;;;;;;8.17;0.90;;;10.40;1.00;;;11.62;100.00;95890.44;4962694;28;20210;-70
2023/02/21 11:25:21;;;;;;;0.50;0.50;;;10.40;1.00;;;11.60;100.00;95892.56;4964650;28;20248;-69
2023/02/21 11:28:06;;;;;;;0.80;0.60;;;10.40;1.00;;;11.64;98.62;95894.47;4967835;28;20212;-70
2023/02/21 11:30:36;;;;;;;0.53;0.50;;;10.50;1.00;;;11.73;95.15;95892.91;4967784;28;20301;-70
2023/02/21 11:33:05;;;;;;;0.80;0.63;;;10.60;1.00;;;11.78;98.50;95874.25;4971010;28;20209;-69
2023/02/21 11:35:35;;;;;;;2.33;0.87;;;10.50;1.00;;;11.96;94.27;95886.34;4968008;28;20806;-69
2023/02/21 11:38:06;;;;;;;2.67;0.80;;;10.70;1.00;;;12.12;93.49;95882.66;4969095;28;20617;-70
2023/02/21 11:40:42;;;;;;;0.63;0.53;;;10.80;1.00;;;11.96;97.27;95865.75;4961641;28;20208;-70
2023/02/21 11:43:21;;;;;;;0.60;0.60;;;10.80;1.00;;;12.00;93.36;95874.88;4965745;28;20234;-70
2023/02/21 11:46:04;;;;;;;0.87;0.60;;;10.80;1.00;;;12.32;93.96;95870.97;4965541;28;20662;-70
2023/02/21 11:48:35;;;;;;;0.90;0.77;;;11.00;1.00;;;12.48;89.10;95867.25;4968272;28;20301;-69
2023/02/21 11:51:13;;;;;;;0.87;0.70;;;11.00;1.00;;;12.59;90.94;95863.53;4965314;28;20215;-73
2023/02/21 11:53:43;;;;;;;4.57;0.87;;;11.00;1.00;;;12.66;93.45;95849.13;4965468;28;20226;-72
2023/02/21 11:56:30;;;;;;;0.90;0.50;;;11.10;1.00;;;12.66;91.67;95855.25;4966202;28;20213;-69
2023/02/21 11:59:09;;;;;;;1.97;0.80;;;11.00;1.00;;;12.67;92.76;95843.47;4965532;28;20215;-69
2023/02/21 12:01:42;;;;;;;1.63;0.63;;;11.00;1.00;;;12.78;92.34;95842.44;4960984;28;20692;-69
2023/02/21 12:04:46;;;;;;;1.07;0.63;;;11.10;1.00;;;12.92;93.20;95834.69;4959859;28;20761;-72
2023/02/21 12:07:21;;;;;;;1.67;1.00;;;11.30;1.00;;;12.89;92.27;95838.69;4955600;28;20227;-69
2023/02/21 12:09:56;;;;;;;0.70;0.60;;;11.20;1.00;;;12.92;95.16;95811.38;4964464;28;20258;-69
2023/02/21 12:12:41;;;;;;;3.13;0.80;;;11.30;1.00;;;12.99;93.72;95816.50;4965251;28;20215;-69
2023/02/21 12:15:22;;;;;;;1.83;1.00;;;11.20;1.00;;;13.11;93.49;95819.72;4962466;28;20213;-69
2023/02/21 12:18:03;;;;;;;0.60;0.60;;;11.30;1.00;;;13.25;93.56;95802.00;4962742;28;20209;-69
2023/02/21 12:20:53;;;;;;;1.83;0.70;;;11.40;1.00;;;13.28;96.68;95801.47;4968713;28;20215;-70
2023/02/21 12:23:30;;;;;;;1.27;0.70;;;11.50;1.00;;;13.31;92.04;95800.91;4956259;28;20323;-70
2023/02/21 12:26:18;;;;;;;1.33;0.70;;;11.50;1.00;;;13.39;87.77;95806.53;4971882;28;20242;-70
2023/02/21 12:29:00;;;;;;;2.80;0.80;;;11.60;1.00;;;13.49;87.56;95800.34;4965228;28;20260;-70
2023/02/21 12:31:43;;;;;;;1.13;0.50;;;11.60;1.00;;;13.53;86.34;95796.03;4966406;28;20659;-70
2023/02/21 12:34:30;;;;;;;1.10;0.80;;;11.70;1.00;;;13.52;87.67;95787.19;4966347;28;20259;-73
2023/02/21 12:37:14;;;;;;;1.77;0.80;;;11.70;1.00;;;13.50;93.03;95775.16;4960992;28;20707;-79
2023/02/21 12:40:13;;;;;;;1.23;0.80;;;11.60;1.00;;;13.52;89.65;95773.00;4963478;28;20854;-72
2023/02/21 12:43:08;;;;;;;0.80;0.73;;;11.70;1.00;;;13.48;84.44;95779.97;4964583;28;20217;-73
2023/02/21 12:45:53;;;;;;;1.60;0.63;;;11.60;1.00;;;13.52;89.20;95767.66;4966609;28;20207;-76
2023/02/21 12:48:31;;;;;;;2.90;0.70;;;11.70;1.00;;;13.55;95.16;95746.47;4969664;28;20270;-74
2023/02/21 12:51:04;;;;;;;2.80;0.73;;;11.60;1.00;;;13.61;97.10;95741.88;4967102;28;20256;-69
2023/02/21 12:53:37;;;;;;;0.70;0.57;;;11.70;1.00;;;13.69;89.11;95752.03;4963714;28;20242;-70
2023/02/21 12:56:08;;;;;;;0.90;0.70;;;11.70;1.00;;;13.66;90.80;95739.97;4966477;28;20283;-70
2023/02/21 12:58:40;;;;;;;0.70;0.70;;;11.90;1.00;;;13.68;88.70;95743.19;4965171;28;20217;-70
2023/02/21 13:01:14;;;;;;;1.07;0.57;;;11.80;1.00;;;13.70;85.38;95741.03;4969727;28;20731;-69
2023/02/21 13:03:54;;;;;;;1.53;0.70;;;11.90;1.00;;;13.74;83.73;95746.66;4966128;28;20239;-70